Time;durP1;ratioP1;P1;durP2;ratioP2;P2;SDS_P1;SDS_P2;PMS_P1;PMS_P2;Temp;Humidity;BMP_temperature;BMP_pressure;BME280_temperature;BME280_humidity;BME280_pressure;Samples;Min_cycle;Max_cycle;Signal;HPM_P1;HPM_P2
2022/05/05 00:02:08;;;;;;;14.32;11.30;;;;;;;13.23;92.96;100631.06;5050625;28;20020;-68
2022/05/05 00:04:34;;;;;;;14.43;11.52;;;;;;;13.17;93.48;100625.44;5047262;28;20408;-68
2022/05/05 00:07:03;;;;;;;15.68;11.77;;;;;;;13.16;93.92;100640.72;5046782;28;20103;-67
2022/05/05 00:09:29;;;;;;;14.88;11.68;;;;;;;13.03;94.00;100617.81;5047053;28;20060;-68
2022/05/05 00:14:40;;;;;;;19.50;13.63;;;;;;;12.97;94.78;100624.53;5046913;28;20124;-63
2022/05/05 00:17:08;;;;;;;19.67;13.52;;;;;;;12.96;95.30;100627.41;5047177;28;20028;-64
2022/05/05 00:19:35;;;;;;;17.10;13.38;;;;;;;12.92;95.03;100625.97;5047192;28;20648;-64
2022/05/05 00:22:01;;;;;;;14.50;12.52;;;;;;;12.88;95.21;100613.78;5045390;28;20032;-65
2022/05/05 00:24:27;;;;;;;16.35;12.43;;;;;;;12.79;95.02;100611.94;5058049;28;20045;-65
2022/05/05 00:26:53;;;;;;;15.88;12.35;;;;;;;12.79;94.88;100620.88;5066687;28;20491;-64
2022/05/05 00:29:20;;;;;;;15.07;12.75;;;;;;;12.79;95.28;100620.88;5049282;28;20616;-66
2022/05/05 00:31:47;;;;;;;15.63;12.10;;;;;;;12.71;95.68;100611.81;5046651;28;20021;-65
2022/05/05 00:34:13;;;;;;;17.73;11.93;;;;;;;12.69;95.85;100622.72;5046797;28;20486;-65
2022/05/05 00:36:39;;;;;;;15.93;12.73;;;;;;;12.72;96.62;100635.03;5046974;28;20037;-64
2022/05/05 00:39:05;;;;;;;18.00;13.15;;;;;;;12.67;96.59;100627.38;5046688;28;20028;-64
2022/05/05 00:41:35;;;;;;;13.63;11.68;;;;;;;12.67;96.15;100631.94;5045297;28;20479;-65
2022/05/05 00:44:06;;;;;;;14.60;11.52;;;;;;;12.64;95.33;100627.66;5045230;28;20503;-65
2022/05/05 00:46:32;;;;;;;17.17;11.90;;;;;;;12.57;95.38;100617.59;5046973;28;20036;-65
2022/05/05 00:48:59;;;;;;;13.30;11.77;;;;;;;12.50;95.42;100622.69;5046467;28;20045;-65
2022/05/05 00:51:25;;;;;;;16.90;11.95;;;;;;;12.49;95.74;100626.38;5046752;28;20527;-66
2022/05/05 00:53:51;;;;;;;14.98;11.88;;;;;;;12.45;96.63;100629.50;5048964;28;20159;-65
2022/05/05 00:56:17;;;;;;;16.40;13.10;;;;;;;12.32;96.93;100615.44;5046740;28;20112;-63
2022/05/05 00:58:47;;;;;;;15.30;12.85;;;;;;;12.39;97.08;100630.03;5060201;28;20501;-64
2022/05/05 01:01:17;;;;;;;15.95;13.15;;;;;;;12.38;97.61;100631.03;5066664;28;20124;-64
2022/05/05 01:03:44;;;;;;;16.77;13.70;;;;;;;12.29;97.55;100621.94;5066231;28;20622;-65
2022/05/05 01:06:09;;;;;;;18.42;14.45;;;;;;;12.24;97.74;100624.22;5054327;28;20036;-64
2022/05/05 01:08:36;;;;;;;16.88;12.88;;;;;;;12.31;96.96;100633.41;5046882;28;20527;-65
2022/05/05 01:11:02;;;;;;;15.50;13.52;;;;;;;12.30;97.59;100650.56;5049166;28;20037;-65
2022/05/05 01:13:29;;;;;;;15.07;12.00;;;;;;;12.28;97.56;100657.06;5059925;28;20500;-66
2022/05/05 01:15:55;;;;;;;15.95;12.38;;;;;;;12.23;97.20;100654.78;5069839;28;20032;-66
2022/05/05 01:18:21;;;;;;;14.90;12.27;;;;;;;12.18;96.98;100661.53;5070155;28;20029;-65
2022/05/05 01:20:50;;;;;;;14.75;12.68;;;;;;;12.16;96.95;100656.28;5057721;28;20371;-65
2022/05/05 01:23:17;;;;;;;14.07;12.15;;;;;;;11.97;97.52;100636.56;5049770;28;20179;-65
2022/05/05 01:28:31;;;;;;;16.23;13.13;;;;;;;12.04;97.68;100653.84;5050258;28;20120;-68
2022/05/05 01:30:58;;;;;;;15.98;13.00;;;;;;;12.06;98.08;100651.88;5049895;28;20501;-69
2022/05/05 01:33:25;;;;;;;15.10;12.80;;;;;;;12.00;97.80;100644.38;5049843;28;20040;-68
2022/05/05 01:35:54;;;;;;;16.85;13.77;;;;;;;12.04;98.09;100659.22;5054905;28;20048;-67
2022/05/05 01:38:37;;;;;;;15.73;13.50;;;;;;;12.01;98.42;100654.13;5070006;28;20066;-67
2022/05/05 01:41:07;;;;;;;15.60;13.73;;;;;;;11.99;98.18;100658.81;5051574;28;20200;-68
2022/05/05 01:43:34;;;;;;;16.52;14.73;;;;;;;11.84;98.75;100633.25;5048366;28;20066;-68
2022/05/05 01:46:00;;;;;;;17.60;14.20;;;;;;;11.95;98.98;100665.41;5048155;28;20029;-68
2022/05/05 01:48:27;;;;;;;20.08;13.55;;;;;;;11.92;99.12;100655.78;5049603;28;20048;-67
2022/05/05 01:50:52;;;;;;;17.13;13.82;;;;;;;11.94;98.99;100652.97;5049433;28;20055;-68
2022/05/05 01:53:18;;;;;;;22.40;14.88;;;;;;;11.90;99.64;100648.84;5049572;28;20024;-68
2022/05/05 01:55:43;;;;;;;19.42;15.82;;;;;;;11.91;99.52;100661.28;5049236;28;20040;-64
2022/05/05 01:58:09;;;;;;;16.15;13.80;;;;;;;11.89;99.55;100655.19;5049632;28;20033;-64
2022/05/05 02:00:34;;;;;;;16.73;14.88;;;;;;;11.86;99.33;100653.63;5049848;28;20044;-64
2022/05/05 02:03:01;;;;;;;18.55;15.30;;;;;;;11.89;99.24;100671.31;5068606;28;20549;-64
2022/05/05 02:05:26;;;;;;;18.45;13.65;;;;;;;11.90;99.74;100673.03;5062178;28;20072;-64
2022/05/05 02:07:53;;;;;;;18.05;14.43;;;;;;;11.82;99.97;100670.16;5049213;28;20060;-66
2022/05/05 02:10:20;;;;;;;14.77;12.90;;;;;;;11.84;99.73;100679.81;5049353;28;20831;-65
2022/05/05 02:12:46;;;;;;;15.65;13.30;;;;;;;11.91;99.41;100688.16;5048808;28;20028;-66
2022/05/05 02:15:13;;;;;;;15.98;13.50;;;;;;;11.91;98.96;100677.44;5049096;28;20032;-65
2022/05/05 02:17:41;;;;;;;15.77;14.07;;;;;;;11.89;99.75;100679.38;5049283;28;20083;-65
2022/05/05 02:20:08;;;;;;;17.58;15.13;;;;;;;11.88;98.92;100683.94;5049277;28;20033;-64
2022/05/05 02:22:34;;;;;;;16.13;13.40;;;;;;;11.89;98.13;100684.75;5061697;28;20072;-66
2022/05/05 02:24:59;;;;;;;17.70;14.60;;;;;;;11.88;99.07;100685.75;5058988;28;20115;-65
2022/05/05 02:27:25;;;;;;;17.63;15.15;;;;;;;11.87;99.56;100682.22;5067590;28;20086;-65
2022/05/05 02:29:51;;;;;;;19.70;15.70;;;;;;;11.84;99.39;100678.94;5065592;28;20514;-66
2022/05/05 02:32:18;;;;;;;19.08;16.92;;;;;;;11.76;100.00;100657.25;5053786;28;20024;-65
2022/05/05 02:34:44;;;;;;;19.30;16.65;;;;;;;11.79;100.00;100668.59;5068527;28;20382;-66
2022/05/05 02:39:54;;;;;;;20.33;16.60;;;;;;;11.84;100.00;100684.31;5048387;28;20505;-66
2022/05/05 02:42:22;;;;;;;21.70;16.05;;;;;;;11.79;100.00;100673.97;5048780;28;20029;-65
2022/05/05 02:44:48;;;;;;;19.08;16.58;;;;;;;11.75;100.00;100663.63;5048574;28;20100;-65
2022/05/05 02:47:13;;;;;;;22.77;16.67;;;;;;;11.81;100.00;100679.22;5058637;28;20035;-65
2022/05/05 02:49:39;;;;;;;20.50;17.27;;;;;;;11.84;100.00;100678.94;5068676;28;20111;-66
2022/05/05 02:52:08;;;;;;;23.77;18.30;;;;;;;11.88;100.00;100680.38;5068108;28;20047;-66
2022/05/05 02:54:55;;;;;;;21.23;18.17;;;;;;;11.78;100.00;100669.59;5054180;28;20130;-66
2022/05/05 02:57:23;;;;;;;22.48;18.80;;;;;;;11.92;100.00;100679.13;5048481;28;20402;-66
2022/05/05 02:59:49;;;;;;;22.33;18.83;;;;;;;11.89;100.00;100672.19;5061962;28;20389;-65
2022/05/05 03:02:15;;;;;;;23.02;20.30;;;;;;;11.97;100.00;100690.31;5066703;28;20125;-65
2022/05/05 03:04:40;;;;;;;26.60;21.58;;;;;;;11.90;100.00;100673.88;5067009;28;20493;-65
2022/05/05 03:07:06;;;;;;;28.88;21.98;;;;;;;12.06;100.00;100692.22;5067799;28;20173;-66
2022/05/05 03:09:32;;;;;;;23.08;20.63;;;;;;;12.10;100.00;100685.56;5068112;28;20585;-64
2022/05/05 03:11:57;;;;;;;23.23;20.45;;;;;;;12.07;100.00;100675.09;5060885;28;20032;-66
2022/05/05 03:14:23;;;;;;;23.42;18.60;;;;;;;12.18;100.00;100688.41;5048050;28;20059;-66
2022/05/05 03:16:49;;;;;;;24.10;16.42;;;;;;;12.24;100.00;100696.81;5047934;28;20040;-66
2022/05/05 03:19:15;;;;;;;18.67;16.67;;;;;;;12.23;100.00;100695.13;5048113;28;20467;-65
2022/05/05 03:21:40;;;;;;;17.98;15.95;;;;;;;12.29;100.00;100705.31;5048261;28;20047;-66
2022/05/05 03:24:06;;;;;;;20.13;16.58;;;;;;;12.33;100.00;100703.22;5047474;28;20053;-66
2022/05/05 03:26:31;;;;;;;19.55;14.32;;;;;;;12.35;100.00;100706.63;5047898;28;20460;-66
2022/05/05 03:28:57;;;;;;;15.77;13.85;;;;;;;12.24;100.00;100687.88;5047580;28;20063;-65
2022/05/05 03:31:23;;;;;;;15.30;13.05;;;;;;;12.41;100.00;100716.84;5047659;28;20439;-66
2022/05/05 03:33:48;;;;;;;14.68;12.60;;;;;;;12.44;100.00;100716.53;5050007;28;20090;-65
2022/05/05 03:36:13;;;;;;;15.02;13.05;;;;;;;12.46;100.00;100723.50;5057281;28;20505;-66
2022/05/05 03:38:39;;;;;;;14.23;11.98;;;;;;;12.47;100.00;100727.91;5047861;28;20031;-65
2022/05/05 03:41:05;;;;;;;14.43;12.63;;;;;;;12.51;100.00;100723.09;5044850;28;20028;-65
2022/05/05 03:43:31;;;;;;;13.90;12.00;;;;;;;12.48;100.00;100720.69;5045148;28;20031;-67
2022/05/05 03:45:57;;;;;;;16.52;12.20;;;;;;;12.59;100.00;100715.19;5046988;28;20052;-65
2022/05/05 03:48:23;;;;;;;15.65;12.10;;;;;;;12.61;100.00;100737.44;5067663;28;20020;-66
2022/05/05 03:50:48;;;;;;;15.27;12.48;;;;;;;12.63;100.00;100721.97;5067389;28;20474;-66
2022/05/05 03:53:14;;;;;;;15.25;13.23;;;;;;;12.65;100.00;100733.47;5059790;28;20021;-66
2022/05/05 03:55:39;;;;;;;15.35;12.50;;;;;;;12.66;100.00;100727.94;5046005;28;20040;-66
2022/05/05 03:58:05;;;;;;;15.18;12.48;;;;;;;12.72;100.00;100743.56;5051499;28;20029;-66
2022/05/05 04:00:30;;;;;;;15.25;12.60;;;;;;;12.76;100.00;100736.91;5047321;28;20027;-66
2022/05/05 04:05:39;;;;;;;14.95;11.65;;;;;;;12.86;100.00;100745.84;5047626;28;20070;-65
2022/05/05 04:08:05;;;;;;;18.30;13.23;;;;;;;12.83;100.00;100745.28;5047097;28;20036;-66
2022/05/05 04:10:31;;;;;;;17.73;13.15;;;;;;;12.94;100.00;100762.16;5046753;28;20029;-66
2022/05/05 04:12:57;;;;;;;15.85;12.55;;;;;;;12.99;100.00;100762.63;5045368;28;20032;-69
2022/05/05 04:15:23;;;;;;;14.75;11.95;;;;;;;13.01;100.00;100763.34;5060811;28;20501;-71
2022/05/05 04:17:49;;;;;;;15.88;11.57;;;;;;;13.08;100.00;100777.09;5054836;28;20337;-70
2022/05/05 04:20:15;;;;;;;15.05;13.55;;;;;;;13.14;100.00;100788.16;5060321;28;20077;-70
2022/05/05 04:22:41;;;;;;;25.17;12.50;;;;;;;13.13;99.70;100772.97;5067319;28;20550;-70
2022/05/05 04:25:08;;;;;;;16.15;12.35;;;;;;;13.27;100.00;100783.38;5066807;28;20136;-69
2022/05/05 04:27:34;;;;;;;14.98;13.10;;;;;;;13.35;99.40;100785.38;5065272;28;20111;-69
2022/05/05 04:30:01;;;;;;;15.07;13.20;;;;;;;13.39;98.95;100782.22;5066139;28;20086;-69
2022/05/05 04:32:27;;;;;;;15.90;12.93;;;;;;;13.51;98.34;100781.09;5058468;28;21496;-69
2022/05/05 04:34:53;;;;;;;14.95;12.48;;;;;;;13.59;98.80;100778.56;5066507;28;20087;-70
2022/05/05 04:37:20;;;;;;;16.13;12.80;;;;;;;13.69;98.05;100781.22;5065041;28;20035;-70
2022/05/05 04:39:45;;;;;;;17.50;13.45;;;;;;;13.75;96.65;100777.97;5066573;28;20035;-66
2022/05/05 04:42:11;;;;;;;14.98;12.63;;;;;;;13.86;96.68;100785.88;5066511;28;20032;-65
2022/05/05 04:44:37;;;;;;;14.75;12.68;;;;;;;13.78;96.04;100758.81;5065284;28;20090;-66
2022/05/05 04:47:02;;;;;;;15.57;12.77;;;;;;;13.79;95.61;100760.50;5067543;28;20119;-64
2022/05/05 04:49:28;;;;;;;14.05;12.55;;;;;;;13.90;96.13;100781.94;5070186;28;20029;-66
2022/05/05 04:51:54;;;;;;;17.65;14.07;;;;;;;13.96;96.27;100786.72;5070007;28;20025;-64
2022/05/05 04:54:20;;;;;;;14.93;12.75;;;;;;;13.99;96.60;100797.22;5060839;28;20039;-65
2022/05/05 04:56:45;;;;;;;14.02;12.52;;;;;;;13.99;96.21;100786.44;5062158;28;20048;-67
2022/05/05 04:59:12;;;;;;;15.75;13.23;;;;;;;13.99;96.82;100791.00;5050415;28;20104;-66
2022/05/05 05:01:37;;;;;;;14.73;13.23;;;;;;;14.03;96.79;100797.78;5048852;28;20461;-66
2022/05/05 05:04:03;;;;;;;14.63;12.95;;;;;;;14.01;97.38;100800.63;5049437;28;20162;-66
2022/05/05 05:06:28;;;;;;;14.73;12.15;;;;;;;14.04;97.45;100786.84;5046272;28;20395;-65
2022/05/05 05:08:55;;;;;;;17.17;11.55;;;;;;;14.06;97.27;100792.94;5058074;28;20025;-65
2022/05/05 05:11:21;;;;;;;15.45;12.68;;;;;;;14.06;97.10;100797.50;5067200;28;20078;-66
2022/05/05 05:13:46;;;;;;;21.88;13.25;;;;;;;14.14;97.04;100792.22;5054382;28;20048;-66
2022/05/05 05:16:12;;;;;;;19.38;12.75;;;;;;;14.26;97.13;100791.09;5069814;28;20024;-65
2022/05/05 05:18:37;;;;;;;20.58;12.88;;;;;;;14.46;96.60;100790.88;5063427;28;20964;-67
2022/05/05 05:21:03;;;;;;;15.65;11.80;;;;;;;14.67;96.31;100783.38;5049741;28;20033;-64
2022/05/05 05:23:28;;;;;;;18.85;12.25;;;;;;;14.88;94.58;100781.31;5049467;28;20041;-65
2022/05/05 05:25:54;;;;;;;23.35;12.07;;;;;;;15.05;94.18;100768.81;5049414;28;20031;-64
2022/05/05 05:28:19;;;;;;;13.90;11.18;;;;;;;15.23;92.24;100784.06;5049587;28;20114;-65
2022/05/05 05:30:44;;;;;;;17.40;11.00;;;;;;;15.33;91.60;100765.94;5068668;28;20028;-65
2022/05/05 05:33:10;;;;;;;13.82;10.93;;;;;;;15.51;90.43;100774.06;5067981;28;20039;-66
2022/05/05 05:35:35;;;;;;;12.40;10.65;;;;;;;15.64;88.62;100783.47;5067990;28;20055;-65
2022/05/05 05:38:01;;;;;;;14.05;10.05;;;;;;;15.78;87.78;100785.63;5067518;28;20031;-66
2022/05/05 05:40:27;;;;;;;12.98;10.07;;;;;;;15.92;87.66;100781.50;5067790;28;20481;-66
2022/05/05 05:42:52;;;;;;;10.63;8.63;;;;;;;16.15;86.91;100781.84;5068878;28;20035;-66
2022/05/05 05:45:18;;;;;;;13.13;9.15;;;;;;;16.30;85.61;100788.34;5061325;28;20032;-65
2022/05/05 05:47:44;;;;;;;10.82;8.30;;;;;;;16.48;84.55;100791.91;5069313;28;20094;-65
2022/05/05 05:50:10;;;;;;;13.02;8.55;;;;;;;16.59;82.11;100786.19;5069001;28;20031;-66
2022/05/05 05:52:36;;;;;;;9.38;7.95;;;;;;;16.69;81.72;100792.31;5066437;28;20040;-66
2022/05/05 05:55:01;;;;;;;9.50;7.13;;;;;;;16.85;80.97;100797.81;5067278;28;20020;-66
2022/05/05 05:57:28;;;;;;;8.05;7.25;;;;;;;16.94;79.52;100797.72;5054848;28;20146;-66
2022/05/05 05:59:54;;;;;;;8.88;7.28;;;;;;;16.92;77.02;100793.44;5067119;28;20772;-66
2022/05/05 06:05:05;;;;;;;8.20;7.03;;;;;;;17.14;77.24;100792.84;5068507;28;20463;-65
2022/05/05 06:07:30;;;;;;;7.88;6.95;;;;;;;17.24;76.71;100798.97;5055618;28;20544;-66
2022/05/05 06:09:56;;;;;;;11.07;7.50;;;;;;;17.37;76.22;100800.19;5056655;28;20036;-65
2022/05/05 06:12:21;;;;;;;9.40;6.70;;;;;;;17.50;75.93;100797.03;5068476;28;20462;-66
2022/05/05 06:14:46;;;;;;;10.13;6.78;;;;;;;17.59;74.81;100785.16;5048753;28;20021;-66
2022/05/05 06:17:12;;;;;;;7.63;6.40;;;;;;;17.78;73.50;100796.56;5060128;28;20069;-66
2022/05/05 06:19:38;;;;;;;7.32;5.82;;;;;;;17.94;72.78;100793.00;5061091;28;20479;-66
2022/05/05 06:22:03;;;;;;;9.38;5.47;;;;;;;18.09;71.25;100794.00;5057566;28;20113;-67
2022/05/05 06:24:29;;;;;;;9.55;6.50;;;;;;;18.15;70.03;100782.44;5065213;28;20049;-67
2022/05/05 06:26:54;;;;;;;6.43;5.47;;;;;;;18.26;69.93;100790.25;5066244;28;20085;-67
2022/05/05 06:29:20;;;;;;;7.57;6.20;;;;;;;18.40;69.86;100783.25;5065991;28;20028;-65
2022/05/05 06:31:45;;;;;;;6.72;5.43;;;;;;;18.55;69.69;100795.97;5066532;28;20633;-65
2022/05/05 06:34:10;;;;;;;7.03;4.88;;;;;;;18.73;69.08;100793.03;5050776;28;20025;-66
2022/05/05 06:36:36;;;;;;;9.18;5.63;;;;;;;18.89;68.77;100798.41;5047936;28;20037;-65
2022/05/05 06:39:02;;;;;;;6.43;5.10;;;;;;;18.99;68.70;100783.56;5045624;28;20082;-66
2022/05/05 06:41:28;;;;;;;6.55;5.65;;;;;;;19.20;67.24;100793.81;5045170;28;20111;-66
2022/05/05 06:43:54;;;;;;;7.75;5.25;;;;;;;19.29;66.25;100793.66;5047186;28;20127;-65
2022/05/05 06:46:20;;;;;;;9.10;5.68;;;;;;;19.33;64.10;100794.97;5048558;28;20104;-65
2022/05/05 06:48:45;;;;;;;5.15;4.65;;;;;;;19.37;64.36;100790.88;5048290;28;20041;-66
2022/05/05 06:51:11;;;;;;;5.47;4.78;;;;;;;19.44;63.43;100791.00;5052220;28;20020;-65
2022/05/05 06:53:36;;;;;;;6.30;4.00;;;;;;;19.45;63.39;100788.09;5068011;28;20032;-65
2022/05/05 06:56:02;;;;;;;4.30;3.88;;;;;;;19.62;63.96;100791.56;5067681;28;20036;-66
2022/05/05 06:58:28;;;;;;;4.43;3.88;;;;;;;19.77;63.46;100789.75;5067816;28;20021;-66
2022/05/05 07:03:38;;;;;;;;;;;;;;;20.12;62.70;100784.50;5060015;28;20078;-66
2022/05/05 07:06:03;;;;;;;4.85;4.35;;;;;;;20.32;61.48;100794.88;5047651;28;20325;-66
2022/05/05 07:10:52;;;;;;;3.92;3.53;;;;;;;20.49;60.40;100791.81;5046864;28;20032;-67
2022/05/05 07:11:15;;;;;;;4.78;3.60;;;;;;;20.66;59.22;100797.94;5047606;28;20060;-67
2022/05/05 07:13:40;;;;;;;4.38;3.45;;;;;;;20.87;57.02;100801.59;5052967;28;20032;-67
2022/05/05 07:16:06;;;;;;;5.45;3.78;;;;;;;21.05;56.18;100803.97;5062679;28;20074;-67
2022/05/05 07:18:31;;;;;;;5.20;3.33;;;;;;;21.12;54.74;100799.44;5047491;28;20060;-66
2022/05/05 07:20:57;;;;;;;4.40;3.53;;;;;;;21.20;54.74;100799.31;5047244;28;20060;-67
2022/05/05 07:23:22;;;;;;;3.83;3.20;;;;;;;21.30;54.65;100787.06;5047595;28;20041;-67
2022/05/05 07:25:48;;;;;;;3.65;2.65;;;;;;;21.52;53.63;100798.84;5058879;28;20039;-66
2022/05/05 07:28:15;;;;;;;4.40;2.75;;;;;;;21.61;52.69;100792.22;5064889;28;20040;-66
2022/05/05 07:30:41;;;;;;;4.57;3.10;;;;;;;21.51;51.61;100769.88;5067148;28;20032;-66
2022/05/05 07:33:07;;;;;;;3.95;3.30;;;;;;;21.78;52.23;100796.44;5066915;28;20384;-66
2022/05/05 07:35:33;;;;;;;4.03;2.75;;;;;;;21.87;52.29;100796.13;5067052;28;20024;-66
2022/05/05 07:37:58;;;;;;;6.97;3.38;;;;;;;21.97;51.55;100801.22;5066623;28;20036;-66
2022/05/05 07:40:24;;;;;;;6.32;2.85;;;;;;;22.11;51.46;100803.03;5059349;28;20082;-65
2022/05/05 07:42:49;;;;;;;7.93;3.42;;;;;;;22.18;52.06;100793.00;5056372;28;20032;-66
2022/05/05 07:45:15;;;;;;;5.75;3.13;;;;;;;22.30;51.70;100797.75;5066205;28;20032;-65
2022/05/05 07:47:40;;;;;;;3.85;3.00;;;;;;;22.49;52.27;100809.00;5047069;28;20040;-66
2022/05/05 07:50:07;;;;;;;3.97;3.28;;;;;;;22.53;51.18;100796.69;5066973;28;20438;-66
2022/05/05 07:52:32;;;;;;;7.45;2.97;;;;;;;22.66;50.07;100803.06;5066609;28;20526;-66
2022/05/05 07:54:58;;;;;;;6.53;2.55;;;;;;;22.70;48.56;100782.47;5063532;28;20025;-66
2022/05/05 07:57:23;;;;;;;3.65;2.53;;;;;;;22.90;47.95;100805.31;5063168;28;20024;-66
2022/05/05 07:59:49;;;;;;;3.13;2.63;;;;;;;23.02;48.33;100800.13;5066867;28;20782;-65
2022/05/05 08:02:15;;;;;;;2.90;2.20;;;;;;;23.16;47.91;100805.44;5067126;28;20044;-67
2022/05/05 08:04:42;;;;;;;4.40;2.90;;;;;;;23.28;47.78;100811.22;5066701;28;20112;-66
2022/05/05 08:07:07;;;;;;;4.25;2.78;;;;;;;23.36;47.32;100811.03;5066458;28;20029;-65
2022/05/05 08:09:33;;;;;;;3.75;2.88;;;;;;;23.33;47.09;100801.34;5066628;28;20085;-67
2022/05/05 08:12:01;;;;;;;5.55;3.05;;;;;;;23.43;46.65;100807.25;5066197;28;20032;-65
2022/05/05 08:14:27;;;;;;;2.90;2.28;;;;;;;23.52;47.31;100800.56;5066740;28;20032;-69
2022/05/05 08:16:53;;;;;;;3.90;2.00;;;;;;;23.65;47.40;100811.53;5063950;28;20342;-67
2022/05/05 08:19:20;;;;;;;4.82;3.22;;;;;;;23.67;46.07;100801.19;5063830;28;20032;-66
2022/05/05 08:21:46;;;;;;;3.67;2.60;;;;;;;23.79;46.56;100807.78;5066406;28;20741;-67
2022/05/05 08:29:40;;;;;;;6.20;2.67;;;;;;;24.01;45.59;100801.09;5058209;28;20094;-67
2022/05/05 08:32:05;;;;;;;10.90;3.50;;;;;;;24.13;46.09;100799.41;5065971;28;20025;-67
2022/05/05 08:34:31;;;;;;;7.22;2.55;;;;;;;24.03;44.27;100792.66;5056514;28;20025;-67
2022/05/05 08:36:56;;;;;;;9.40;2.20;;;;;;;24.19;44.90;100803.22;5046591;28;20040;-67
2022/05/05 08:39:22;;;;;;;2.30;1.98;;;;;;;24.12;44.09;100792.22;5046538;28;20055;-66
2022/05/05 08:41:47;;;;;;;2.63;1.80;;;;;;;24.20;43.27;100799.41;5046506;28;20035;-66
2022/05/05 08:44:13;;;;;;;8.48;2.17;;;;;;;24.27;43.71;100802.97;5061177;28;20025;-66
2022/05/05 08:46:40;;;;;;;3.97;2.35;;;;;;;24.39;43.89;100804.91;5066489;28;20035;-65
2022/05/05 08:49:06;;;;;;;2.38;2.17;;;;;;;24.48;43.66;100799.16;5064735;28;20048;-66
2022/05/05 08:51:42;;;;;;;4.13;2.60;;;;;;;24.50;43.39;100799.81;5063828;28;20033;-67
2022/05/05 08:54:12;;;;;;;3.28;2.67;;;;;;;24.51;42.51;100796.00;5050577;28;20463;-67
2022/05/05 08:56:38;;;;;;;4.65;2.45;;;;;;;24.44;43.04;100790.53;5065591;28;20052;-67
2022/05/05 08:59:04;;;;;;;3.47;2.38;;;;;;;24.61;43.11;100797.25;5056198;28;20048;-65
2022/05/05 09:01:38;;;;;;;6.25;2.30;;;;;;;24.64;43.25;100785.91;5066136;28;20044;-66
2022/05/05 09:04:08;;;;;;;3.15;2.53;;;;;;;24.73;42.78;100794.75;5058841;28;20021;-66
2022/05/05 09:07:03;;;;;;;5.00;2.40;;;;;;;24.72;42.58;100790.28;5046426;28;20131;-68
2022/05/05 09:09:36;;;;;;;2.95;2.13;;;;;;;24.83;43.04;100800.63;5039093;28;20043;-67
2022/05/05 09:12:12;;;;;;;3.70;2.10;;;;;;;24.84;43.17;100794.06;5065957;28;20052;-65
2022/05/05 09:14:43;;;;;;;4.40;2.20;;;;;;;24.85;42.73;100815.81;5064694;28;20040;-67
2022/05/05 09:17:11;;;;;;;3.15;2.45;;;;;;;24.83;42.93;100808.84;5050658;28;20125;-67
2022/05/05 09:19:38;;;;;;;3.92;2.42;;;;;;;24.83;43.02;100809.72;5048638;28;20119;-67
2022/05/05 09:22:05;;;;;;;3.00;1.95;;;;;;;24.86;42.42;100812.00;5053806;28;20035;-68
2022/05/05 09:24:40;;;;;;;3.70;2.25;;;;;;;24.85;41.22;100804.81;5061439;28;20283;-69
2022/05/05 09:27:19;;;;;;;3.58;2.00;;;;;;;24.94;41.64;100809.03;5045943;28;20470;-68
2022/05/05 09:30:10;;;;;;;3.25;1.80;;;;;;;24.98;41.11;100812.19;5044752;28;20078;-67
2022/05/05 09:32:46;;;;;;;3.40;2.00;;;;;;;24.96;41.11;100811.56;5063174;28;20070;-67
2022/05/05 09:35:16;;;;;;;2.00;1.80;;;;;;;24.99;40.92;100808.38;5057090;28;20036;-66
2022/05/05 09:37:47;;;;;;;2.65;1.95;;;;;;;24.98;40.59;100812.19;5049791;28;20041;-67
2022/05/05 09:40:17;;;;;;;2.00;1.77;;;;;;;24.93;40.26;100821.09;5054753;28;20021;-67
2022/05/05 09:42:47;;;;;;;3.65;2.20;;;;;;;24.91;40.10;100819.59;5054921;28;20037;-67
2022/05/05 09:45:20;;;;;;;3.30;2.20;;;;;;;24.86;39.78;100819.41;5049296;28;20021;-67
2022/05/05 09:47:51;;;;;;;2.20;2.00;;;;;;;24.75;40.58;100807.19;5049604;28;20068;-66
2022/05/05 09:50:20;;;;;;;9.57;2.35;;;;;;;24.80;40.78;100823.00;5060148;28;20036;-69
2022/05/05 09:58:19;;;;;;;5.30;2.20;;;;;;;24.75;40.58;100815.41;5056607;28;20134;-67
2022/05/05 10:00:55;;;;;;;2.50;2.25;;;;;;;24.79;40.72;100815.84;5059343;28;20119;-67
2022/05/05 10:06:37;;;;;;;4.25;2.35;;;;;;;24.81;40.43;100808.22;5048017;28;20063;-68
2022/05/05 10:09:10;;;;;;;4.95;2.83;;;;;;;24.81;40.84;100806.31;5057325;28;20455;-67
2022/05/05 10:11:36;;;;;;;7.65;3.10;;;;;;;24.94;42.01;100806.28;5054604;28;20072;-67
2022/05/05 10:14:04;;;;;;;5.70;2.60;;;;;;;24.86;41.41;100812.00;5061814;28;20067;-67
2022/05/05 10:16:31;;;;;;;5.18;2.15;;;;;;;24.84;40.41;100810.53;5063394;28;20028;-67
2022/05/05 10:18:57;;;;;;;2.75;2.20;;;;;;;24.80;40.71;100798.31;5053431;28;20021;-67
2022/05/05 10:21:35;;;;;;;2.97;2.17;;;;;;;24.83;40.87;100808.84;5049440;28;20039;-68
2022/05/05 10:24:18;;;;;;;6.97;2.90;;;;;;;24.83;41.55;100814.34;5035735;28;20114;-68
2022/05/05 10:26:51;;;;;;;7.03;3.23;;;;;;;24.88;41.16;100812.63;5049968;28;20039;-68
2022/05/05 10:29:32;;;;;;;6.20;2.92;;;;;;;24.83;41.48;100811.59;5048516;28;20031;-67
2022/05/05 10:32:18;;;;;;;3.63;2.20;;;;;;;24.79;41.84;100811.16;5047976;28;20028;-68
2022/05/05 10:34:45;;;;;;;3.45;2.42;;;;;;;24.80;41.87;100806.53;5059969;28;20032;-67
2022/05/05 10:37:18;;;;;;;2.60;2.20;;;;;;;24.81;41.97;100797.25;5051254;28;20118;-68
2022/05/05 10:40:03;;;;;;;3.80;2.30;;;;;;;24.88;41.85;100798.06;5047454;28;20059;-67
2022/05/05 10:42:37;;;;;;;3.58;1.90;;;;;;;24.72;41.60;100777.41;5047717;28;20475;-66
2022/05/05 10:45:13;;;;;;;6.18;2.15;;;;;;;24.77;41.46;100799.59;5047490;28;20102;-67
2022/05/05 10:48:04;;;;;;;2.95;2.05;;;;;;;24.73;41.71;100801.03;5056635;28;20484;-68
2022/05/05 10:50:50;;;;;;;2.35;2.05;;;;;;;24.73;41.27;100795.56;5050285;28;20487;-66
2022/05/05 10:53:25;;;;;;;4.53;2.20;;;;;;;24.69;41.77;100804.47;5060388;28;20035;-67
2022/05/05 10:55:51;;;;;;;2.55;1.75;;;;;;;24.66;41.72;100793.91;5054992;28;20032;-66
2022/05/05 10:58:57;;;;;;;2.58;2.22;;;;;;;24.74;41.72;100810.13;5063443;28;20089;-66
2022/05/05 11:01:26;;;;;;;3.28;2.05;;;;;;;24.79;41.54;100800.19;5056131;28;20017;-67
2022/05/05 11:04:17;;;;;;;4.15;1.98;;;;;;;24.86;41.40;100811.16;5062183;28;20552;-67
2022/05/05 11:06:43;;;;;;;5.05;1.90;;;;;;;24.77;40.96;100793.25;5051634;28;20200;-66
2022/05/05 11:09:09;;;;;;;2.63;1.90;;;;;;;24.88;40.87;100811.78;5047066;28;20037;-67
2022/05/05 11:11:41;;;;;;;10.68;2.20;;;;;;;25.02;40.48;100808.78;5053474;28;20021;-66
2022/05/05 11:23:07;;;;;;;3.30;2.17;;;;;;;24.91;39.37;100803.13;5063847;28;20062;-67
2022/05/05 11:25:33;;;;;;;2.67;1.60;;;;;;;24.88;39.32;100796.16;5065253;28;20048;-67
2022/05/05 11:27:59;;;;;;;2.83;2.17;;;;;;;24.86;39.50;100792.78;5062126;28;20017;-67
2022/05/05 11:30:24;;;;;;;3.03;2.00;;;;;;;24.86;39.49;100794.72;5059978;28;20028;-67
2022/05/05 11:32:50;;;;;;;4.15;2.20;;;;;;;24.88;39.52;100787.06;5053306;28;20025;-66
2022/05/05 11:35:21;;;;;;;4.68;2.00;;;;;;;24.93;39.53;100784.53;5067175;28;20024;-67
2022/05/05 11:37:47;;;;;;;5.60;2.33;;;;;;;24.97;40.21;100781.16;5067226;28;21569;-68
2022/05/05 11:40:13;;;;;;;3.30;2.08;;;;;;;25.08;39.86;100790.63;5057165;28;20017;-67
2022/05/05 11:45:30;;;;;;;5.72;2.53;;;;;;;25.11;39.96;100781.97;5067835;28;20047;-67
2022/05/05 11:47:56;;;;;;;6.43;2.53;;;;;;;24.98;40.00;100758.13;5051148;28;20583;-66
2022/05/05 11:50:22;;;;;;;4.00;2.10;;;;;;;25.11;39.57;100780.03;5051834;28;20021;-67
2022/05/05 11:52:47;;;;;;;4.00;2.38;;;;;;;25.09;39.32;100779.44;5048954;28;20033;-68
2022/05/05 11:55:19;;;;;;;5.55;2.15;;;;;;;25.10;39.40;100774.75;5066374;28;20085;-68
2022/05/05 11:57:47;;;;;;;4.95;2.47;;;;;;;25.11;39.73;100774.53;5054077;28;20016;-67
2022/05/05 12:02:58;;;;;;;3.95;2.30;;;;;;;25.18;38.49;100766.28;5066970;28;20067;-67
2022/05/05 12:05:25;;;;;;;2.80;2.17;;;;;;;25.20;38.81;100758.66;5067579;28;20479;-67